createdAt,value
2023-05-22T00:00:25.602Z,99717.34
2023-05-22T00:01:58.000Z,99716.47
2023-05-22T00:03:30.951Z,99721.66
2023-05-22T00:05:03.697Z,99724.25
2023-05-22T00:06:35.981Z,99720.78
2023-05-22T00:08:14.143Z,99716.47
2023-05-22T00:09:46.998Z,99716.47
2023-05-22T00:11:19.330Z,99719.06
2023-05-22T00:12:51.516Z,99708.72
2023-05-22T00:14:23.739Z,99713.72
2023-05-22T00:15:56.013Z,99710.25
2023-05-22T00:17:31.086Z,99714.56
2023-05-22T00:19:04.084Z,99717.16
2023-05-22T00:20:39.619Z,99720.66
2023-05-22T00:22:12.178Z,99715.41
2023-05-22T00:23:44.358Z,99716.38
2023-05-22T00:25:19.400Z,99721.38
2023-05-22T00:26:51.551Z,99714.56
2023-05-22T00:28:23.707Z,99714.56
2023-05-22T00:29:55.921Z,99719.78
2023-05-22T00:31:28.079Z,99709.31
2023-05-22T00:33:00.264Z,99706.63
2023-05-22T00:34:32.533Z,99709.22
2023-05-22T00:36:05.110Z,99705.00
2023-05-22T00:37:37.346Z,99709.34
2023-05-22T00:39:10.237Z,99706.75
2023-05-22T00:40:42.423Z,99709.53
2023-05-22T00:42:14.539Z,99708.56
2023-05-22T00:43:46.694Z,99708.66
2023-05-22T00:45:18.889Z,99706.16
2023-05-22T00:46:51.798Z,99712.97
2023-05-22T00:48:24.538Z,99714.72
2023-05-22T00:49:56.778Z,99710.41
2023-05-22T00:51:29.031Z,99713.06
2023-05-22T00:53:01.294Z,99712.16
2023-05-22T00:54:33.733Z,99715.66
2023-05-22T00:56:07.484Z,99702.63
2023-05-22T00:57:42.943Z,99711.31
2023-05-22T00:59:15.196Z,99710.41
2023-05-22T01:00:47.947Z,99711.31
2023-05-22T01:02:20.888Z,99697.38
2023-05-22T01:03:54.226Z,99707.75
2023-05-22T01:05:27.110Z,99710.25
2023-05-22T01:06:59.785Z,99706.97
2023-05-22T01:08:32.008Z,99709.59
2023-05-22T01:10:06.533Z,99704.41
2023-05-22T01:12:10.026Z,99706.13
2023-05-22T01:13:57.171Z,99702.56
2023-05-22T01:15:41.471Z,99700.84
2023-05-22T01:17:38.533Z,99697.38
2023-05-22T01:19:54.379Z,99704.34
2023-05-22T01:21:46.530Z,99697.50
2023-05-22T01:23:27.686Z,99695.75
2023-05-22T01:25:17.867Z,99701.75
2023-05-22T01:27:26.286Z,99705.09
2023-05-22T01:29:09.559Z,99700.16
2023-05-22T01:31:01.693Z,99699.25
2023-05-22T01:32:34.937Z,99695.72
2023-05-22T01:34:12.183Z,99696.63
2023-05-22T01:35:47.425Z,99687.91
2023-05-22T01:37:24.204Z,99698.31
2023-05-22T01:38:56.940Z,99691.53
2023-05-22T01:40:29.975Z,99689.09
2023-05-22T01:42:02.912Z,99688.22
2023-05-22T01:43:36.517Z,99686.31
2023-05-22T01:45:12.391Z,99682.88
2023-05-22T01:46:44.572Z,99683.00
2023-05-22T01:48:16.839Z,99678.75
2023-05-22T01:49:49.039Z,99688.28
2023-05-22T01:51:27.288Z,99681.19
2023-05-22T01:53:14.346Z,99683.00
2023-05-22T01:54:49.070Z,99678.75
2023-05-22T01:56:31.370Z,99679.56
2023-05-22T01:58:34.107Z,99686.41
2023-05-22T02:00:11.728Z,99679.69
2023-05-22T02:01:44.463Z,99680.56
2023-05-22T02:03:21.061Z,99686.53
2023-05-22T02:04:57.110Z,99684.81
2023-05-22T02:06:33.833Z,99686.56
2023-05-22T02:08:06.366Z,99687.53
2023-05-22T02:09:39.671Z,99690.00
2023-05-22T02:11:13.244Z,99691.72
2023-05-22T02:12:45.610Z,99681.34
2023-05-22T02:14:18.971Z,99686.53
2023-05-22T02:17:23.973Z,99679.69
2023-05-22T02:19:08.326Z,99684.72
2023-05-22T02:20:41.191Z,99684.94
2023-05-22T02:22:16.467Z,99679.72
2023-05-22T02:23:48.623Z,99684.09
2023-05-22T02:25:21.063Z,99677.13
2023-05-22T02:26:53.165Z,99677.97
2023-05-22T02:28:25.339Z,99677.16
2023-05-22T02:29:57.616Z,99684.97
2023-05-22T02:31:30.024Z,99673.03
2023-05-22T02:33:06.014Z,99669.56
2023-05-22T02:34:38.357Z,99673.84
2023-05-22T02:36:11.316Z,99683.31
2023-05-22T02:37:45.761Z,99672.91
2023-05-22T02:39:20.888Z,99681.56
2023-05-22T02:40:53.178Z,99666.25
2023-05-22T02:42:25.387Z,99673.03
2023-05-22T02:43:57.602Z,99677.28
2023-05-22T02:45:30.280Z,99677.19
2023-05-22T02:47:02.506Z,99670.34
2023-05-22T02:48:34.752Z,99669.47
2023-05-22T02:50:07.689Z,99666.75
2023-05-22T02:51:39.967Z,99676.44
2023-05-22T02:53:12.362Z,99675.56
2023-05-22T02:54:44.786Z,99680.94
2023-05-22T02:56:17.348Z,99673.25
2023-05-22T02:57:49.562Z,99669.84
2023-05-22T02:59:21.752Z,99672.53
2023-05-22T03:00:54.742Z,99672.56
2023-05-22T03:02:28.819Z,99676.09
2023-05-22T03:04:01.255Z,99670.25
2023-05-22T03:05:33.909Z,99669.38
2023-05-22T03:07:07.647Z,99676.25
2023-05-22T03:08:43.832Z,99672.78
2023-05-22T03:10:16.094Z,99683.97
2023-05-22T03:11:48.252Z,99680.69
2023-05-22T03:13:20.451Z,99678.19
2023-05-22T03:14:52.642Z,99680.84
2023-05-22T03:16:25.465Z,99674.78
2023-05-22T03:17:57.673Z,99679.25
2023-05-22T03:19:29.915Z,99676.81
2023-05-22T03:21:02.298Z,99674.41
2023-05-22T03:22:34.430Z,99676.88
2023-05-22T03:24:06.915Z,99674.34
2023-05-22T03:25:39.096Z,99681.28
2023-05-22T03:27:12.405Z,99677.03
2023-05-22T03:28:44.676Z,99675.28
2023-05-22T03:30:17.002Z,99684.84
2023-05-22T03:31:49.282Z,99677.94
2023-05-22T03:33:21.484Z,99684.00
2023-05-22T03:34:54.026Z,99676.09
2023-05-22T03:36:26.210Z,99675.28
2023-05-22T03:37:58.411Z,99683.03
2023-05-22T03:39:30.698Z,99687.28
2023-05-22T03:41:03.203Z,99682.06
2023-05-22T03:42:35.340Z,99681.22
2023-05-22T03:44:07.480Z,99683.69
2023-05-22T03:45:39.798Z,99686.25
2023-05-22T03:47:12.224Z,99691.53
2023-05-22T03:48:44.392Z,99692.44
2023-05-22T03:50:16.567Z,99692.44
2023-05-22T03:51:48.765Z,99683.69
2023-05-22T03:53:21.624Z,99688.00
2023-05-22T03:54:54.140Z,99688.06
2023-05-22T03:56:27.014Z,99686.34
2023-05-22T03:57:59.241Z,99694.94
2023-05-22T03:59:31.574Z,99689.69
2023-05-22T04:01:05.803Z,99691.25
2023-05-22T04:02:40.604Z,99697.31
2023-05-22T04:04:12.983Z,99699.88
2023-05-22T04:05:45.626Z,99701.66
2023-05-22T04:07:18.774Z,99703.34
2023-05-22T04:08:51.070Z,99702.38
2023-05-22T04:10:24.095Z,99704.06
2023-05-22T04:11:56.435Z,99693.59
2023-05-22T04:13:31.379Z,99702.16
2023-05-22T04:15:03.712Z,99707.31
2023-05-22T04:16:36.347Z,99701.16
2023-05-22T04:18:08.920Z,99694.16
2023-05-22T04:19:41.136Z,99709.59
2023-05-22T04:21:13.365Z,99701.59
2023-05-22T04:22:46.351Z,99704.03
2023-05-22T04:24:19.031Z,99706.50
2023-05-22T04:25:51.788Z,99703.78
2023-05-22T04:27:23.998Z,99704.53
2023-05-22T04:28:56.273Z,99706.22
2023-05-22T04:30:28.400Z,99702.59
2023-05-22T04:32:00.655Z,99714.59
2023-05-22T04:33:34.869Z,99707.59
2023-05-22T04:35:07.484Z,99715.25
2023-05-22T04:36:39.619Z,99705.56
2023-05-22T04:38:11.986Z,99708.06
2023-05-22T04:39:46.040Z,99698.31
2023-05-22T04:41:22.912Z,99702.38
2023-05-22T04:42:55.122Z,99700.34
2023-05-22T04:44:27.652Z,99705.28
2023-05-22T04:45:59.907Z,99707.59
2023-05-22T04:47:32.316Z,99709.03
2023-05-22T04:49:06.901Z,99711.19
2023-05-22T04:50:39.165Z,99712.59
2023-05-22T04:52:12.114Z,99712.34
2023-05-22T04:53:44.403Z,99715.53
2023-05-22T04:55:16.750Z,99719.59
2023-05-22T04:56:48.863Z,99717.59
2023-05-22T04:58:22.407Z,99714.69
2023-05-22T04:59:54.817Z,99709.25
2023-05-22T05:01:29.905Z,99712.53
2023-05-22T05:03:03.347Z,99702.78
2023-05-22T05:04:35.627Z,99699.03
2023-05-22T05:06:08.855Z,99701.50
2023-05-22T05:07:41.136Z,99701.16
2023-05-22T05:09:13.251Z,99695.69
2023-05-22T05:10:45.485Z,99700.50
2023-05-22T05:12:17.966Z,99694.97
2023-05-22T05:13:50.295Z,99697.34
2023-05-22T05:15:24.146Z,99692.72
2023-05-22T05:16:57.400Z,99694.09
2023-05-22T05:18:29.673Z,99704.28
2023-05-22T05:20:02.079Z,99700.41
2023-05-22T05:21:34.229Z,99696.69
2023-05-22T05:23:06.538Z,99692.00
2023-05-22T05:24:38.820Z,99697.06
2023-05-22T05:26:11.190Z,99695.94
2023-05-22T05:27:43.310Z,99695.56
2023-05-22T05:29:15.516Z,99696.22
2023-05-22T05:30:47.698Z,99700.31
2023-05-22T05:32:19.995Z,99700.25
2023-05-22T05:33:52.687Z,99694.78
2023-05-22T05:35:25.422Z,99703.28
2023-05-22T05:37:00.325Z,99698.84
2023-05-22T05:38:32.578Z,99701.03
2023-05-22T05:40:07.660Z,99700.03
2023-05-22T05:41:39.895Z,99697.34
2023-05-22T05:43:14.471Z,99701.47
2023-05-22T05:44:46.756Z,99703.91
2023-05-22T05:46:19.691Z,99705.41
2023-05-22T05:49:24.665Z,99701.78
2023-05-22T05:50:56.842Z,99706.75
2023-05-22T05:52:32.921Z,99701.59
2023-05-22T05:54:05.505Z,99709.13
2023-05-22T05:55:38.028Z,99715.91
2023-05-22T05:57:10.247Z,99719.41
2023-05-22T05:58:42.490Z,99714.00
2023-05-22T06:00:14.919Z,99719.41
2023-05-22T06:01:47.690Z,99717.56
2023-05-22T06:03:19.888Z,99723.56
2023-05-22T06:04:52.120Z,99718.25
2023-05-22T06:06:26.533Z,99722.41
2023-05-22T06:07:59.341Z,99720.50
2023-05-22T06:09:31.507Z,99723.06
2023-05-22T06:11:03.928Z,99715.97
2023-05-22T06:12:36.069Z,99713.44
2023-05-22T06:14:09.214Z,99725.44
2023-05-22T06:15:41.630Z,99717.53
2023-05-22T06:17:13.914Z,99719.06
2023-05-22T06:18:47.143Z,99718.31
2023-05-22T06:20:19.571Z,99716.59
2023-05-22T06:21:52.184Z,99718.72
2023-05-22T06:23:24.572Z,99716.75
2023-05-22T06:24:56.792Z,99715.59
2023-05-22T06:26:29.174Z,99721.59
2023-05-22T06:28:01.363Z,99729.53
2023-05-22T06:29:33.554Z,99716.38
2023-05-22T06:31:05.885Z,99717.69
2023-05-22T06:32:38.291Z,99718.34
2023-05-22T06:34:10.692Z,99710.97
2023-05-22T06:35:43.560Z,99706.06
2023-05-22T06:37:16.537Z,99710.81
2023-05-22T06:38:50.006Z,99712.34
2023-05-22T06:40:22.679Z,99711.50
2023-05-22T06:41:54.883Z,99708.81
2023-05-22T06:43:27.098Z,99705.97
2023-05-22T06:44:59.309Z,99708.50
2023-05-22T06:46:31.604Z,99705.78
2023-05-22T06:48:04.347Z,99705.47
2023-05-22T06:49:36.745Z,99707.31
2023-05-22T06:51:11.903Z,99701.69
2023-05-22T06:52:44.134Z,99710.78
2023-05-22T06:54:16.363Z,99711.78
2023-05-22T06:55:48.834Z,99709.22
2023-05-22T06:57:21.858Z,99711.53
2023-05-22T06:58:54.062Z,99716.84
2023-05-22T07:00:26.281Z,99711.28
2023-05-22T07:01:58.384Z,99719.56
2023-05-22T07:03:30.704Z,99717.31
2023-05-22T07:05:02.877Z,99714.44
2023-05-22T07:06:39.436Z,99714.69
2023-05-22T07:08:11.670Z,99724.25
2023-05-22T07:09:43.948Z,99720.53
2023-05-22T07:11:16.089Z,99716.56
2023-05-22T07:12:48.385Z,99717.00
2023-05-22T07:14:20.569Z,99720.28
2023-05-22T07:15:52.717Z,99716.16
2023-05-22T07:17:24.981Z,99719.28
2023-05-22T07:18:57.573Z,99709.34
2023-05-22T07:20:29.840Z,99711.16
2023-05-22T07:22:02.285Z,99711.84
2023-05-22T07:23:34.516Z,99711.22
2023-05-22T07:25:07.252Z,99708.91
2023-05-22T07:26:39.505Z,99707.72
2023-05-22T07:28:12.001Z,99712.31
2023-05-22T07:29:44.150Z,99700.69
2023-05-22T07:31:16.815Z,99706.06
2023-05-22T07:32:49.246Z,99696.06
2023-05-22T07:34:21.522Z,99698.50
2023-05-22T07:35:53.713Z,99698.91
2023-05-22T07:37:26.070Z,99697.03
2023-05-22T07:38:58.922Z,99701.25
2023-05-22T07:40:31.025Z,99696.97
2023-05-22T07:42:03.610Z,99692.34
2023-05-22T07:43:35.877Z,99696.75
2023-05-22T07:45:08.969Z,99688.22
2023-05-22T07:46:41.533Z,99691.34
2023-05-22T07:48:13.890Z,99694.91
2023-05-22T07:49:46.256Z,99693.78
2023-05-22T07:51:18.473Z,99698.47
2023-05-22T07:54:23.600Z,99693.25
2023-05-22T07:55:55.816Z,99701.72
2023-05-22T07:57:30.003Z,99694.47
2023-05-22T07:59:02.228Z,99694.47
2023-05-22T08:00:34.653Z,99694.59
2023-05-22T08:02:08.826Z,99696.09
2023-05-22T08:03:41.197Z,99696.47
2023-05-22T08:05:13.623Z,99696.81
2023-05-22T08:06:45.921Z,99693.03
2023-05-22T08:08:18.195Z,99699.34
2023-05-22T08:09:50.343Z,99702.19
2023-05-22T08:11:26.659Z,99705.50
2023-05-22T08:13:02.780Z,99705.88
2023-05-22T08:14:34.951Z,99699.34
2023-05-22T08:16:07.473Z,99704.50
2023-05-22T08:17:39.651Z,99704.22
2023-05-22T08:19:12.028Z,99697.81
2023-05-22T08:20:44.292Z,99700.44
2023-05-22T08:22:16.613Z,99701.84
2023-05-22T08:23:48.824Z,99699.91
2023-05-22T08:25:21.177Z,99709.41
2023-05-22T08:26:53.751Z,99707.22
2023-05-22T08:28:26.021Z,99703.56
2023-05-22T08:29:58.256Z,99708.09
2023-05-22T08:31:30.497Z,99701.81
2023-05-22T08:33:02.790Z,99703.84
2023-05-22T08:34:36.032Z,99705.34
2023-05-22T08:36:08.053Z,99698.78
2023-05-22T08:37:40.407Z,99698.03
2023-05-22T08:39:13.027Z,99693.22
2023-05-22T08:40:49.120Z,99690.81
2023-05-22T08:42:21.350Z,99689.81
2023-05-22T08:43:53.668Z,99693.28
2023-05-22T08:45:26.618Z,99691.00
2023-05-22T08:47:01.132Z,99691.56
2023-05-22T08:48:33.805Z,99692.44
2023-05-22T08:50:06.923Z,99694.34
2023-05-22T08:51:40.589Z,99687.41
2023-05-22T08:53:16.096Z,99698.47
2023-05-22T08:54:53.519Z,99694.03
2023-05-22T08:56:28.608Z,99686.25
2023-05-22T08:58:01.834Z,99690.25
2023-05-22T08:59:39.019Z,99696.59
2023-05-22T09:01:11.372Z,99699.06
2023-05-22T09:02:43.995Z,99694.66
2023-05-22T09:04:16.207Z,99693.59
2023-05-22T09:05:49.816Z,99694.66
2023-05-22T09:07:22.539Z,99691.50
2023-05-22T09:08:54.871Z,99692.81
2023-05-22T09:10:27.091Z,99692.41
2023-05-22T09:11:59.419Z,99692.00
2023-05-22T09:13:32.272Z,99686.09
2023-05-22T09:15:10.685Z,99688.97
2023-05-22T09:16:47.440Z,99690.63
2023-05-22T09:18:19.998Z,99691.59
2023-05-22T09:19:52.134Z,99693.06
2023-05-22T09:21:30.202Z,99677.88
2023-05-22T09:23:03.056Z,99678.94
2023-05-22T09:24:42.896Z,99678.13
2023-05-22T09:26:15.097Z,99679.38
2023-05-22T09:27:48.124Z,99683.19
2023-05-22T09:29:20.249Z,99677.91
2023-05-22T09:30:54.095Z,99679.19
2023-05-22T09:32:29.929Z,99678.38
2023-05-22T09:34:02.303Z,99684.72
2023-05-22T09:35:36.059Z,99685.47
2023-05-22T09:37:08.330Z,99677.75
2023-05-22T09:38:40.582Z,99682.56
2023-05-22T09:40:14.677Z,99685.16
2023-05-22T09:41:46.918Z,99683.63
2023-05-22T09:43:19.229Z,99675.44
2023-05-22T09:44:52.143Z,99673.97
2023-05-22T09:46:24.332Z,99678.91
2023-05-22T09:48:00.644Z,99674.38
2023-05-22T09:49:37.449Z,99677.22
2023-05-22T09:51:11.113Z,99665.50
2023-05-22T09:52:45.271Z,99674.06
2023-05-22T09:54:20.247Z,99674.56
2023-05-22T09:57:34.558Z,99673.50
2023-05-22T09:59:09.287Z,99668.03
2023-05-22T10:00:42.388Z,99665.78
2023-05-22T10:02:14.569Z,99661.00
2023-05-22T10:03:49.569Z,99658.66
2023-05-22T10:05:22.536Z,99662.56
2023-05-22T10:06:55.436Z,99659.59
2023-05-22T10:08:35.101Z,99659.53
2023-05-22T10:10:12.752Z,99652.84
2023-05-22T10:11:45.773Z,99653.06
2023-05-22T10:13:18.138Z,99650.66
2023-05-22T10:14:50.778Z,99646.13
2023-05-22T10:16:23.037Z,99658.34
2023-05-22T10:17:55.672Z,99655.50
2023-05-22T10:19:29.895Z,99651.22
2023-05-22T10:21:03.114Z,99650.97
2023-05-22T10:22:36.270Z,99644.06
2023-05-22T10:24:08.652Z,99654.34
2023-05-22T10:25:41.185Z,99660.22
2023-05-22T10:27:13.332Z,99665.34
2023-05-22T10:28:53.946Z,99653.06
2023-05-22T10:30:29.186Z,99652.03
2023-05-22T10:32:10.219Z,99654.78
2023-05-22T10:33:45.783Z,99653.47
2023-05-22T10:35:21.731Z,99651.28
2023-05-22T10:37:17.255Z,99643.34
2023-05-22T10:39:21.632Z,99651.00
2023-05-22T10:40:54.356Z,99643.94
2023-05-22T10:42:30.364Z,99645.16
2023-05-22T10:44:03.368Z,99642.78
2023-05-22T10:45:37.082Z,99630.94
2023-05-22T10:47:13.840Z,99632.00
2023-05-22T10:48:47.789Z,99634.03
2023-05-22T10:50:19.965Z,99627.09
2023-05-22T10:51:58.565Z,99628.72
2023-05-22T10:53:32.812Z,99619.25
2023-05-22T10:56:47.417Z,99616.72
2023-05-22T10:58:32.451Z,99615.44
2023-05-22T11:00:19.687Z,99617.63
2023-05-22T11:02:01.260Z,99615.81
2023-05-22T11:03:53.246Z,99605.81
2023-05-22T11:05:28.505Z,99609.81
2023-05-22T11:07:08.120Z,99598.44
2023-05-22T11:08:40.655Z,99602.56
2023-05-22T11:10:12.815Z,99603.09
2023-05-22T11:11:45.518Z,99604.53
2023-05-22T11:13:18.261Z,99610.19
2023-05-22T11:15:11.932Z,99597.03
2023-05-22T11:16:44.309Z,99601.44
2023-05-22T11:18:17.468Z,99592.47
2023-05-22T11:19:57.278Z,99595.13
2023-05-22T11:21:30.112Z,99589.84
2023-05-22T11:23:05.925Z,99598.00
2023-05-22T11:24:38.101Z,99589.16
2023-05-22T11:26:21.914Z,99596.03
2023-05-22T11:27:54.941Z,99581.75
2023-05-22T11:29:27.540Z,99588.47
2023-05-22T11:31:00.609Z,99583.09
2023-05-22T11:32:32.803Z,99585.72
2023-05-22T11:34:05.049Z,99579.00
2023-05-22T11:35:38.278Z,99585.50
2023-05-22T11:37:10.287Z,99582.75
2023-05-22T11:38:43.908Z,99583.09
2023-05-22T11:40:21.507Z,99572.56
2023-05-22T11:41:53.986Z,99566.44
2023-05-22T11:43:30.611Z,99573.66
2023-05-22T11:45:03.587Z,99568.63
2023-05-22T11:46:35.965Z,99563.13
2023-05-22T11:48:09.219Z,99569.66
2023-05-22T11:49:43.246Z,99569.41
2023-05-22T11:51:20.088Z,99573.69
2023-05-22T11:52:54.276Z,99569.69
2023-05-22T11:54:26.471Z,99564.78
2023-05-22T11:56:05.873Z,99567.94
2023-05-22T11:57:38.703Z,99560.47
2023-05-22T11:59:10.805Z,99564.91
2023-05-22T12:00:43.840Z,99553.03
2023-05-22T12:02:21.916Z,99560.34
2023-05-22T12:03:55.394Z,99561.31
2023-05-22T12:05:27.588Z,99553.25
2023-05-22T12:07:00.255Z,99550.25
2023-05-22T12:08:32.575Z,99549.63
2023-05-22T12:10:07.628Z,99553.25
2023-05-22T12:11:39.918Z,99551.88
2023-05-22T12:13:12.429Z,99547.00
2023-05-22T12:14:48.156Z,99544.47
2023-05-22T12:16:24.179Z,99541.81
2023-05-22T12:17:56.942Z,99535.31
2023-05-22T12:19:29.558Z,99542.28
2023-05-22T12:21:01.876Z,99541.06
2023-05-22T12:22:34.016Z,99531.22
2023-05-22T12:24:06.918Z,99540.97
2023-05-22T12:25:39.123Z,99535.56
2023-05-22T12:27:11.725Z,99540.63
2023-05-22T12:28:44.342Z,99534.75
2023-05-22T12:30:17.350Z,99528.84
2023-05-22T12:31:50.022Z,99533.91
2023-05-22T12:33:31.623Z,99526.34
2023-05-22T12:35:03.846Z,99524.75
2023-05-22T12:36:40.360Z,99525.47
2023-05-22T12:38:13.881Z,99524.53
2023-05-22T12:39:59.265Z,99525.50
2023-05-22T12:41:31.405Z,99516.31
2023-05-22T12:43:03.660Z,99521.75
2023-05-22T12:44:42.590Z,99495.06
2023-05-22T12:46:14.970Z,99516.13
2023-05-22T12:47:47.346Z,99513.38
2023-05-22T12:49:19.602Z,99511.31
2023-05-22T12:50:51.795Z,99521.66
2023-05-22T12:52:24.042Z,99511.69
2023-05-22T12:53:57.285Z,99522.97
2023-05-22T12:55:29.277Z,99519.97
2023-05-22T12:57:01.444Z,99522.38
2023-05-22T12:58:33.623Z,99523.69
2023-05-22T13:00:06.630Z,99529.22
2023-05-22T13:01:38.805Z,99523.28
2023-05-22T13:03:12.705Z,99527.13
2023-05-22T13:04:44.946Z,99522.69
2023-05-22T13:06:17.142Z,99519.22
2023-05-22T13:07:49.558Z,99515.63
2023-05-22T13:09:22.159Z,99521.84
2023-05-22T13:10:54.916Z,99524.84
2023-05-22T13:12:27.720Z,99520.75
2023-05-22T13:13:59.877Z,99525.44
2023-05-22T13:15:32.992Z,99517.63
2023-05-22T13:17:05.400Z,99512.59
2023-05-22T13:18:37.614Z,99514.63
2023-05-22T13:21:45.246Z,99513.28
2023-05-22T13:23:17.508Z,99509.06
2023-05-22T13:24:49.730Z,99510.63
2023-05-22T13:26:21.977Z,99505.81
2023-05-22T13:27:54.169Z,99499.91
2023-05-22T13:29:26.288Z,99500.38
2023-05-22T13:30:58.492Z,99494.50
2023-05-22T13:32:30.853Z,99492.81
2023-05-22T13:34:03.386Z,99491.97
2023-05-22T13:35:35.618Z,99488.34
2023-05-22T13:37:08.612Z,99494.16
2023-05-22T13:38:40.888Z,99492.13
2023-05-22T13:40:13.414Z,99486.97
2023-05-22T13:41:45.995Z,99487.94
2023-05-22T13:43:18.182Z,99483.53
2023-05-22T13:44:50.525Z,99479.56
2023-05-22T13:46:23.195Z,99474.16
2023-05-22T13:47:55.431Z,99477.88
2023-05-22T13:49:28.424Z,99478.13
2023-05-22T13:51:00.701Z,99476.78
2023-05-22T13:52:32.910Z,99481.47
2023-05-22T13:55:39.365Z,99481.31
2023-05-22T13:57:11.645Z,99477.31
2023-05-22T13:58:43.877Z,99477.56
2023-05-22T14:00:16.715Z,99479.50
2023-05-22T14:01:51.819Z,99474.31
2023-05-22T14:03:24.146Z,99481.41
2023-05-22T14:04:56.430Z,99477.31
2023-05-22T14:06:28.672Z,99476.13
2023-05-22T14:08:00.819Z,99477.13
2023-05-22T14:09:32.998Z,99478.88
2023-05-22T14:11:05.242Z,99479.34
2023-05-22T14:12:37.353Z,99484.75
2023-05-22T14:14:09.643Z,99479.72
2023-05-22T14:15:42.948Z,99480.22
2023-05-22T14:17:14.951Z,99474.63
2023-05-22T14:18:47.463Z,99478.72
2023-05-22T14:20:19.735Z,99481.47
2023-05-22T14:21:52.195Z,99477.50
2023-05-22T14:23:24.437Z,99470.94
2023-05-22T14:24:57.531Z,99472.38
2023-05-22T14:26:29.786Z,99475.84
2023-05-22T14:28:02.210Z,99481.50
2023-05-22T14:29:34.370Z,99474.06
2023-05-22T14:31:06.630Z,99479.59
2023-05-22T14:32:38.894Z,99478.28
2023-05-22T15:10:14.970Z,99455.00
2023-05-22T15:11:49.630Z,99455.00
2023-05-22T15:13:22.067Z,99448.75
2023-05-22T15:14:54.205Z,99455.59
2023-05-22T15:16:26.594Z,99453.91
2023-05-22T15:18:02.957Z,99454.63
2023-05-22T15:19:35.516Z,99456.47
2023-05-22T15:21:07.895Z,99457.94
2023-05-22T15:22:40.764Z,99451.06
2023-05-22T15:24:13.783Z,99454.34
2023-05-22T15:25:47.260Z,99456.88
2023-05-22T15:27:19.447Z,99455.91
2023-05-22T15:28:51.611Z,99462.19
2023-05-22T15:30:23.922Z,99455.78
2023-05-22T15:31:56.109Z,99459.16
2023-05-22T15:33:28.263Z,99452.03
2023-05-22T15:35:00.527Z,99451.06
2023-05-22T15:36:33.276Z,99451.69
2023-05-22T15:38:05.914Z,99440.03
2023-05-22T15:39:38.153Z,99440.63
2023-05-22T15:41:10.355Z,99439.38
2023-05-22T15:42:42.558Z,99440.81
2023-05-22T15:44:14.944Z,99441.25
2023-05-22T15:45:48.940Z,99439.91
2023-05-22T15:47:21.238Z,99450.31
2023-05-22T15:48:53.550Z,99448.25
2023-05-22T15:50:25.829Z,99451.34
2023-05-22T15:51:59.004Z,99458.63
2023-05-22T15:53:31.188Z,99462.13
2023-05-22T15:55:03.479Z,99468.69
2023-05-22T15:56:35.736Z,99463.63
2023-05-22T15:58:08.369Z,99470.22
2023-05-22T15:59:40.505Z,99475.78
2023-05-22T16:01:15.811Z,99478.69
2023-05-22T16:02:48.949Z,99483.53
2023-05-22T16:04:21.055Z,99484.28
2023-05-22T16:05:53.281Z,99490.41
2023-05-22T16:07:25.514Z,99492.13
2023-05-22T16:08:57.710Z,99486.91
2023-05-22T16:10:30.037Z,99482.75
2023-05-22T16:12:03.088Z,99477.00
2023-05-22T16:13:35.521Z,99476.28
2023-05-22T16:15:08.511Z,99481.66
2023-05-22T16:16:41.302Z,99484.53
2023-05-22T16:18:13.804Z,99483.69
2023-05-22T16:19:45.923Z,99489.69
2023-05-22T16:21:18.090Z,99495.34
2023-05-22T16:22:50.372Z,99494.22
2023-05-22T16:24:22.694Z,99487.25
2023-05-22T16:25:54.923Z,99484.41
2023-05-22T16:27:27.213Z,99498.19
2023-05-22T16:28:59.406Z,99492.13
2023-05-22T16:30:31.654Z,99501.97
2023-05-22T16:32:04.405Z,99501.44
2023-05-22T16:33:37.845Z,99498.22
2023-05-22T16:35:10.084Z,99496.88
2023-05-22T16:36:42.236Z,99497.38
2023-05-22T16:38:14.931Z,99495.75
2023-05-22T16:39:47.693Z,99498.97
2023-05-22T16:41:19.812Z,99484.91
2023-05-22T16:44:31.956Z,99491.97
2023-05-22T16:46:04.546Z,99500.13
2023-05-22T16:47:36.843Z,99504.50
2023-05-22T16:49:09.079Z,99505.38
2023-05-22T16:50:42.912Z,99511.47
2023-05-22T16:52:15.066Z,99515.63
2023-05-22T16:53:47.343Z,99514.66
2023-05-22T16:55:19.723Z,99519.38
2023-05-22T16:56:51.990Z,99518.84
2023-05-22T16:58:24.157Z,99538.28
2023-05-22T16:59:57.826Z,99543.66
2023-05-22T17:01:30.645Z,99549.16
2023-05-22T17:03:03.589Z,99555.53
2023-05-22T17:04:35.865Z,99567.47
2023-05-22T17:06:09.276Z,99568.69
2023-05-22T17:07:41.716Z,99580.03
2023-05-22T17:09:13.868Z,99577.97
2023-05-22T17:10:46.065Z,99583.16
2023-05-22T17:12:18.312Z,99583.56
2023-05-22T17:13:50.612Z,99586.19
2023-05-22T17:15:22.758Z,99580.03
2023-05-22T17:18:38.181Z,99600.88
2023-05-22T17:20:10.739Z,99602.53
2023-05-22T17:21:43.613Z,99611.66
2023-05-22T17:23:16.394Z,99614.78
2023-05-22T17:24:49.563Z,99622.31
2023-05-22T17:26:21.620Z,99629.47
2023-05-22T17:27:53.791Z,99620.47
2023-05-22T17:29:27.971Z,99624.22
2023-05-22T17:31:01.072Z,99620.75
2023-05-22T17:32:33.596Z,99618.41
2023-05-22T17:34:05.933Z,99623.22
2023-05-22T17:35:38.394Z,99622.16
2023-05-22T17:37:10.989Z,99621.78
2023-05-22T17:38:43.127Z,99627.78
2023-05-22T17:40:15.308Z,99620.19
2023-05-22T17:41:47.484Z,99622.72
2023-05-22T17:43:20.330Z,99614.25
2023-05-22T17:44:52.440Z,99612.66
2023-05-22T17:46:24.698Z,99602.22
2023-05-22T17:47:57.021Z,99612.75
2023-05-22T17:49:29.186Z,99605.06
2023-05-22T17:51:01.515Z,99605.16
2023-05-22T17:54:07.423Z,99609.72
2023-05-22T17:55:39.611Z,99605.06
2023-05-22T17:57:12.115Z,99598.31
2023-05-22T17:58:44.333Z,99608.81
2023-05-22T18:00:20.023Z,99607.97
2023-05-22T18:01:52.296Z,99603.91
2023-05-22T18:03:24.697Z,99611.03
2023-05-22T18:04:56.920Z,99610.38
2023-05-22T18:06:29.739Z,99614.69
2023-05-22T18:08:02.042Z,99614.03
2023-05-22T18:09:34.372Z,99621.16
2023-05-22T18:11:06.579Z,99617.97
2023-05-22T18:12:38.791Z,99623.63
2023-05-22T18:14:11.075Z,99626.41
2023-05-22T18:15:43.294Z,99620.69
2023-05-22T18:17:15.520Z,99625.16
2023-05-22T18:18:47.877Z,99636.69
2023-05-22T18:20:20.628Z,99635.25
2023-05-22T18:23:31.928Z,99632.41
2023-05-22T18:25:04.529Z,99636.91
2023-05-22T18:26:36.755Z,99642.22
2023-05-22T18:28:11.176Z,99641.41
2023-05-22T18:29:43.514Z,99628.34
2023-05-22T18:31:16.162Z,99636.22
2023-05-22T18:32:48.416Z,99638.94
2023-05-22T18:34:20.591Z,99633.78
2023-05-22T18:35:53.178Z,99642.44
2023-05-22T18:37:25.386Z,99653.00
2023-05-22T18:38:57.540Z,99659.44
2023-05-22T18:40:29.787Z,99663.84
2023-05-22T18:42:02.019Z,99656.91
2023-05-22T18:43:34.325Z,99649.97
2023-05-22T18:45:07.509Z,99658.66
2023-05-22T18:46:39.694Z,99661.72
2023-05-22T18:48:12.169Z,99677.47
2023-05-22T18:49:44.532Z,99670.78
2023-05-22T18:51:17.133Z,99670.94
2023-05-22T18:52:49.258Z,99672.03
2023-05-22T18:54:21.465Z,99668.75
2023-05-22T18:55:54.295Z,99668.91
2023-05-22T18:57:26.563Z,99661.97
2023-05-22T18:58:58.769Z,99663.66
2023-05-22T19:00:31.234Z,99660.28
2023-05-22T19:02:03.442Z,99666.72
2023-05-22T19:03:35.692Z,99669.56
2023-05-22T19:05:08.266Z,99669.88
2023-05-22T19:06:42.515Z,99666.78
2023-05-22T19:08:14.659Z,99661.81
2023-05-22T19:09:46.871Z,99664.69
2023-05-22T19:11:19.410Z,99660.53
2023-05-22T19:12:51.555Z,99667.47